Time;durP1;ratioP1;P1;durP2;ratioP2;P2;SDS_P1;SDS_P2;PMS_P1;PMS_P2;Temp;Humidity;BMP_temperature;BMP_pressure;BME280_temperature;BME280_humidity;BME280_pressure;Samples;Min_cycle;Max_cycle;Signal;HPM_P1;HPM_P2
2022/03/06 00:01:25;;;;;;;29.48;14.38;;;;;;;0.65;62.63;102243.53;4993212;28;20129;-66
2022/03/06 00:03:53;;;;;;;30.40;14.43;;;;;;;0.62;62.79;102243.41;4995351;28;20035;-64
2022/03/06 00:06:20;;;;;;;27.42;14.23;;;;;;;0.59;62.83;102244.22;4994567;28;20838;-65
2022/03/06 00:08:47;;;;;;;28.83;13.90;;;;;;;0.57;62.82;102248.47;4994751;28;20039;-64
2022/03/06 00:11:14;;;;;;;25.52;13.23;;;;;;;0.55;62.82;102242.38;4996151;28;20050;-66
2022/03/06 00:13:41;;;;;;;29.08;13.82;;;;;;;-147.05;100.00;58721.66;4995724;28;20050;-63
2022/03/06 00:16:08;;;;;;;31.63;14.40;;;;;;;-147.05;100.00;58721.66;4994481;28;20038;-64
2022/03/06 00:18:37;;;;;;;28.15;14.75;;;;;;;-147.05;100.00;58721.66;4996355;28;20128;-65
2022/03/06 00:21:05;;;;;;;30.25;13.75;;;;;;;-147.05;100.00;58721.66;4991819;28;20534;-65
2022/03/06 00:23:34;;;;;;;26.52;13.23;;;;;;;-147.05;100.00;58721.66;4994671;28;20064;-66
2022/03/06 00:26:01;;;;;;;28.95;14.18;;;;;;;-147.05;100.00;58721.66;4999421;28;20046;-65
2022/03/06 00:28:28;;;;;;;26.95;14.18;;;;;;;-147.05;100.00;58721.66;5002058;28;20078;-67
2022/03/06 00:30:55;;;;;;;28.58;13.95;;;;;;;-147.05;100.00;58721.66;4998150;28;20113;-65
2022/03/06 00:33:22;;;;;;;34.45;15.23;;;;;;;-147.05;100.00;58721.66;4997516;28;20046;-65
2022/03/06 00:35:49;;;;;;;30.67;15.27;;;;;;;-147.05;100.00;58721.66;4996880;28;20050;-66
2022/03/06 00:38:16;;;;;;;27.35;13.57;;;;;;;-147.05;100.00;58721.66;5012964;28;20042;-66
2022/03/06 00:40:45;;;;;;;30.40;15.45;;;;;;;-147.05;100.00;58721.66;5008339;28;20129;-64
2022/03/06 00:43:12;;;;;;;28.73;13.50;;;;;;;-147.05;100.00;58721.66;5004017;28;20090;-65
2022/03/06 00:45:39;;;;;;;27.25;14.18;;;;;;;-147.05;100.00;58721.66;5001610;28;20049;-65
2022/03/06 00:48:06;;;;;;;26.77;14.32;;;;;;;-147.05;100.00;58721.66;5002175;28;20049;-65
2022/03/06 00:50:37;;;;;;;27.85;13.68;;;;;;;-147.05;100.00;58721.66;4997104;28;20054;-64
2022/03/06 00:53:05;;;;;;;27.27;13.80;;;;;;;-147.05;100.00;58721.66;5003287;28;20118;-64
2022/03/06 00:55:33;;;;;;;29.45;14.77;;;;;;;-147.05;100.00;58721.66;4999974;28;20035;-65
2022/03/06 00:58:05;;;;;;;30.38;14.13;;;;;;;-147.05;100.00;58721.66;5002880;28;20059;-65
2022/03/06 01:00:35;;;;;;;29.15;14.43;;;;;;;-147.05;100.00;58721.66;5010966;28;20047;-67
2022/03/06 01:03:04;;;;;;;29.02;14.40;;;;;;;-147.05;100.00;58721.66;4998149;28;20059;-68
2022/03/06 01:05:31;;;;;;;28.10;14.57;;;;;;;-147.05;100.00;58721.66;5020006;28;20507;-67
2022/03/06 01:07:58;;;;;;;29.35;14.48;;;;;;;-147.05;100.00;58721.66;4999054;28;20046;-67
2022/03/06 01:10:26;;;;;;;27.05;13.50;;;;;;;-147.05;100.00;58721.66;4999610;28;20059;-65
2022/03/06 01:12:54;;;;;;;26.02;13.80;;;;;;;-147.05;100.00;58721.66;4997863;28;20038;-65
2022/03/06 01:15:22;;;;;;;28.70;14.60;;;;;;;-147.05;100.00;58721.66;5000141;28;20570;-69
2022/03/06 01:17:49;;;;;;;29.08;14.50;;;;;;;-147.05;100.00;58721.66;4998624;28;20046;-65
2022/03/06 01:20:17;;;;;;;27.27;13.45;;;;;;;-147.05;100.00;58721.66;4999598;28;20066;-65
2022/03/06 01:22:46;;;;;;;25.40;13.02;;;;;;;-147.05;100.00;58721.66;4997601;28;20588;-65
2022/03/06 01:25:14;;;;;;;29.30;14.00;;;;;;;-147.05;100.00;58721.66;5000367;28;20054;-65
2022/03/06 01:27:41;;;;;;;30.27;14.05;;;;;;;-147.05;100.00;58721.66;5000916;28;20046;-67
2022/03/06 01:30:09;;;;;;;28.88;14.85;;;;;;;-147.05;100.00;58721.66;5000332;28;20074;-65
2022/03/06 01:32:37;;;;;;;30.90;15.15;;;;;;;-147.05;100.00;58721.66;4999086;28;20046;-66
2022/03/06 01:35:05;;;;;;;31.10;14.80;;;;;;;-147.05;100.00;58721.66;4999950;28;20053;-66
2022/03/06 01:37:32;;;;;;;28.85;14.85;;;;;;;-147.05;100.00;58721.66;5010574;28;20129;-67
2022/03/06 01:39:59;;;;;;;28.98;13.95;;;;;;;-147.05;100.00;58721.66;4996298;28;20573;-66
2022/03/06 01:42:27;;;;;;;34.97;15.70;;;;;;;-147.05;100.00;58721.66;4995098;28;20050;-64
2022/03/06 01:44:54;;;;;;;28.10;14.32;;;;;;;-147.05;100.00;58721.66;4992862;28;21402;-64
2022/03/06 01:47:43;;;;;;;29.23;14.18;;;;;;;-147.05;100.00;58721.66;4989791;28;20148;-64
2022/03/06 01:50:24;;;;;;;27.83;14.57;;;;;;;-147.05;100.00;58721.66;4999438;28;20042;-64
2022/03/06 01:52:52;;;;;;;30.50;14.98;;;;;;;-147.05;100.00;58721.66;4990502;28;20079;-64
2022/03/06 01:55:24;;;;;;;28.10;14.05;;;;;;;-147.05;100.00;58721.66;5002832;28;20490;-64
2022/03/06 01:57:55;;;;;;;27.67;13.95;;;;;;;-147.05;100.00;58721.66;5002549;28;20381;-66
2022/03/06 02:00:30;;;;;;;31.40;14.88;;;;;;;-147.05;100.00;58721.66;4995826;28;20042;-66
2022/03/06 02:02:57;;;;;;;;;;;;;;;-147.05;100.00;58721.66;4994189;28;20058;-67
2022/03/06 02:05:24;;;;;;;31.02;14.77;;;;;;;-147.05;100.00;58721.66;4990637;28;20762;-66
2022/03/06 02:07:52;;;;;;;33.50;14.65;;;;;;;-147.05;100.00;58721.66;4990795;28;20046;-69
2022/03/06 02:10:21;;;;;;;30.35;14.82;;;;;;;-147.05;100.00;58721.66;4992789;28;20595;-65
2022/03/06 02:12:48;;;;;;;30.58;15.07;;;;;;;-147.05;100.00;58721.66;4997706;28;20047;-67
2022/03/06 02:15:17;;;;;;;30.63;15.07;;;;;;;-147.05;100.00;58721.66;5011645;28;20089;-66
2022/03/06 02:17:46;;;;;;;29.63;14.35;;;;;;;-147.05;100.00;58721.66;4993412;28;20057;-66
2022/03/06 02:20:15;;;;;;;30.08;14.15;;;;;;;-147.05;100.00;58721.66;4992930;28;20038;-68
2022/03/06 02:22:51;;;;;;;29.98;14.70;;;;;;;-147.05;100.00;58721.66;4994372;28;20421;-66
2022/03/06 02:25:22;;;;;;;30.60;14.38;;;;;;;-147.05;100.00;58721.66;4995975;28;20069;-66
2022/03/06 02:27:53;;;;;;;27.75;15.15;;;;;;;-147.05;100.00;58721.66;4998799;28;20050;-66
2022/03/06 02:30:28;;;;;;;31.85;14.80;;;;;;;-147.05;100.00;58721.66;4996633;28;20042;-67
2022/03/06 02:33:02;;;;;;;30.13;14.00;;;;;;;-147.05;100.00;58721.66;4997273;28;20043;-65
2022/03/06 02:35:30;;;;;;;34.03;15.25;;;;;;;-147.05;100.00;58721.66;4993725;28;20062;-65
2022/03/06 02:37:58;;;;;;;33.30;14.35;;;;;;;-147.05;100.00;58721.66;5000486;28;20046;-67
2022/03/06 02:40:26;;;;;;;28.13;13.98;;;;;;;-147.05;100.00;58721.66;4995606;28;20043;-66
2022/03/06 02:42:55;;;;;;;31.30;14.60;;;;;;;-147.05;100.00;58721.66;4998705;28;20046;-66
2022/03/06 02:45:27;;;;;;;29.75;14.32;;;;;;;-147.05;100.00;58721.66;4995045;28;20070;-67
2022/03/06 02:47:56;;;;;;;30.10;13.65;;;;;;;-147.05;100.00;58721.66;4996353;28;20046;-65
2022/03/06 02:50:31;;;;;;;31.00;14.93;;;;;;;-147.05;100.00;58721.66;4995700;28;20051;-65
2022/03/06 02:53:00;;;;;;;;;;;;;;;-147.05;100.00;58721.66;4995899;28;20112;-67
2022/03/06 02:55:27;;;;;;;33.17;14.55;;;;;;;-147.05;100.00;58721.66;4997701;28;19925;-66
2022/03/06 02:57:55;;;;;;;29.00;13.88;;;;;;;-147.05;100.00;58721.66;4996569;28;21459;-65
2022/03/06 03:00:25;;;;;;;29.85;14.35;;;;;;;-147.05;100.00;58721.66;4997020;28;20069;-65
2022/03/06 03:02:53;;;;;;;30.67;15.15;;;;;;;-147.05;100.00;58721.66;4993013;28;20061;-65
2022/03/06 03:05:21;;;;;;;30.77;14.43;;;;;;;-147.05;100.00;58721.66;4996796;28;20051;-64
2022/03/06 03:07:50;;;;;;;29.58;14.82;;;;;;;-147.05;100.00;58721.66;4998737;28;20046;-64
2022/03/06 03:10:22;;;;;;;26.52;13.98;;;;;;;-147.05;100.00;58721.66;4992158;28;20050;-65
2022/03/06 03:12:50;;;;;;;28.67;14.35;;;;;;;-147.05;100.00;58721.66;5005418;28;20031;-65
2022/03/06 03:15:18;;;;;;;29.15;14.23;;;;;;;-147.05;100.00;58721.66;4999006;28;20466;-63
2022/03/06 03:17:45;;;;;;;29.23;13.32;;;;;;;-147.05;100.00;58721.66;5001165;28;20988;-65
2022/03/06 03:20:15;;;;;;;28.48;14.43;;;;;;;-1.53;100.00;58721.66;4992856;28;20038;-66
2022/03/06 03:22:43;;;;;;;28.73;14.63;;;;;;;-1.57;100.00;58721.66;4996318;28;20049;-66
2022/03/06 03:25:12;;;;;;;26.55;14.45;;;;;;;-1.62;100.00;58721.66;4992282;28;20058;-65
2022/03/06 03:27:39;;;;;;;27.15;14.05;;;;;;;-147.05;100.00;58721.66;4992194;28;20478;-65
2022/03/06 03:30:09;;;;;;;28.38;14.32;;;;;;;-147.05;100.00;58721.66;4995054;28;20121;-65
2022/03/06 03:32:37;;;;;;;30.70;14.38;;;;;;;-147.05;100.00;58721.66;4991346;28;20876;-65
2022/03/06 03:35:05;;;;;;;27.38;14.75;;;;;;;-147.05;100.00;58721.66;4992667;28;20038;-65
2022/03/06 03:37:33;;;;;;;27.08;14.68;;;;;;;-147.05;100.00;58721.66;4992189;28;20878;-66
2022/03/06 03:40:00;;;;;;;26.73;13.57;;;;;;;-147.05;100.00;58721.66;4995062;28;20563;-65
2022/03/06 03:42:27;;;;;;;34.33;15.35;;;;;;;-147.05;100.00;58721.66;4991773;28;20046;-65
2022/03/06 03:44:54;;;;;;;28.50;14.60;;;;;;;-147.05;100.00;58721.66;4994829;28;20043;-66
2022/03/06 03:47:22;;;;;;;25.83;13.27;;;;;;;-147.05;100.00;58721.66;5010208;28;20046;-65
2022/03/06 03:49:50;;;;;;;30.20;14.35;;;;;;;-147.05;100.00;58721.66;4996505;28;20043;-66
2022/03/06 03:52:17;;;;;;;27.20;14.93;;;;;;;-147.05;100.00;58721.66;4993429;28;20055;-66
2022/03/06 03:54:44;;;;;;;28.17;14.57;;;;;;;-147.05;100.00;58721.66;4996872;28;20129;-65
2022/03/06 03:57:13;;;;;;;29.02;14.50;;;;;;;-147.05;100.00;58721.66;4993733;28;20058;-64
2022/03/06 03:59:40;;;;;;;30.70;15.05;;;;;;;-147.05;100.00;58721.66;4994089;28;20089;-65
2022/03/06 04:02:07;;;;;;;28.25;14.65;;;;;;;-147.05;100.00;58721.66;4992828;28;20452;-63
2022/03/06 04:04:35;;;;;;;26.48;14.50;;;;;;;-147.05;100.00;58721.66;4992761;28;20136;-63
2022/03/06 04:07:03;;;;;;;27.33;14.23;;;;;;;-147.05;100.00;58721.66;4993587;28;20494;-65
2022/03/06 04:09:30;;;;;;;27.50;13.75;;;;;;;-147.05;100.00;58721.66;4993775;28;20039;-65
2022/03/06 04:11:57;;;;;;;28.20;15.18;;;;;;;-147.05;100.00;58721.66;4992682;28;20043;-65
2022/03/06 04:14:24;;;;;;;28.80;15.20;;;;;;;-147.05;100.00;58721.66;4991589;28;20423;-65
2022/03/06 04:16:51;;;;;;;29.05;14.25;;;;;;;-147.05;100.00;58721.66;4992201;28;20042;-68
2022/03/06 04:19:18;;;;;;;27.23;14.85;;;;;;;-2.05;100.00;58721.66;4997227;28;20043;-64
2022/03/06 04:21:45;;;;;;;28.98;15.52;;;;;;;-147.05;100.00;58721.66;4998385;28;20046;-64
2022/03/06 04:24:12;;;;;;;29.15;14.88;;;;;;;191.58;100.00;58721.66;4990689;28;20047;-63
2022/03/06 04:26:39;;;;;;;25.90;13.93;;;;;;;-147.05;100.00;58721.66;4995888;28;20039;-63
2022/03/06 04:29:07;;;;;;;26.90;14.15;;;;;;;-147.05;100.00;58721.66;4994552;28;20050;-65
2022/03/06 04:31:34;;;;;;;28.67;14.52;;;;;;;-147.05;100.00;58721.66;4993477;28;20534;-64
2022/03/06 04:34:01;;;;;;;30.63;15.35;;;;;;;-147.05;100.00;58721.66;4992966;28;20051;-65
2022/03/06 04:36:29;;;;;;;30.70;14.90;;;;;;;-147.05;100.00;58721.66;4993465;28;20514;-64
2022/03/06 04:38:56;;;;;;;29.17;14.93;;;;;;;-147.05;100.00;58721.66;4992981;28;20134;-65
2022/03/06 04:41:23;;;;;;;27.73;14.00;;;;;;;-147.05;100.00;58721.66;4992475;28;20505;-66
2022/03/06 04:43:52;;;;;;;28.45;15.00;;;;;;;-1.83;100.00;58721.66;5012121;28;20047;-68
2022/03/06 04:46:20;;;;;;;28.75;15.40;;;;;;;-147.05;100.00;58721.66;4992159;28;20507;-69
2022/03/06 04:48:47;;;;;;;27.30;14.73;;;;;;;-147.05;100.00;58721.66;4995254;28;20573;-66
2022/03/06 04:51:14;;;;;;;28.45;15.18;;;;;;;-147.05;100.00;58721.66;4993736;28;20773;-66
2022/03/06 04:53:42;;;;;;;29.67;15.05;;;;;;;-147.05;100.00;58721.66;4991049;28;20051;-66
2022/03/06 04:56:10;;;;;;;28.38;14.48;;;;;;;-147.05;100.00;58721.66;4992680;28;20138;-67
2022/03/06 04:58:38;;;;;;;26.15;14.68;;;;;;;-147.05;100.00;58721.66;4993228;28;20110;-66
2022/03/06 05:01:06;;;;;;;26.65;14.95;;;;;;;-147.05;100.00;58721.66;4991308;28;20666;-66
2022/03/06 05:03:33;;;;;;;28.02;14.93;;;;;;;-147.05;100.00;58721.66;4995718;28;20066;-67
2022/03/06 05:06:01;;;;;;;26.63;14.88;;;;;;;-147.05;100.00;58721.66;4990944;28;20046;-66
2022/03/06 05:08:28;;;;;;;31.02;15.48;;;;;;;-147.05;100.00;58721.66;4991257;28;20090;-66
2022/03/06 05:10:56;;;;;;;25.75;14.20;;;;;;;-147.05;100.00;58721.66;5008925;28;20133;-66
2022/03/06 05:13:24;;;;;;;29.08;14.48;;;;;;;-147.05;100.00;58721.66;4994614;28;20073;-66
2022/03/06 05:15:52;;;;;;;27.65;15.55;;;;;;;-147.05;100.00;58721.66;5008477;28;20042;-66
2022/03/06 05:18:19;;;;;;;27.88;14.63;;;;;;;-147.05;100.00;58721.66;4992594;28;20077;-64
2022/03/06 05:20:48;;;;;;;27.55;15.48;;;;;;;-147.05;100.00;58721.66;4992940;28;20043;-64
2022/03/06 05:23:17;;;;;;;26.05;14.93;;;;;;;-147.05;100.00;58721.66;4994271;28;20133;-64
2022/03/06 05:25:45;;;;;;;28.05;14.55;;;;;;;-147.05;100.00;58721.66;5006305;28;20085;-65
2022/03/06 05:28:13;;;;;;;26.83;14.95;;;;;;;-147.05;100.00;58721.66;4991279;28;20913;-64
2022/03/06 05:30:41;;;;;;;23.88;14.07;;;;;;;-147.05;100.00;58721.66;4992903;28;20049;-67
2022/03/06 05:33:08;;;;;;;28.80;14.95;;;;;;;-147.05;100.00;58721.66;4998696;28;20046;-65
2022/03/06 05:35:35;;;;;;;25.98;14.55;;;;;;;-147.05;100.00;58721.66;4994598;28;20043;-65
2022/03/06 05:38:02;;;;;;;25.67;14.52;;;;;;;-147.05;100.00;58721.66;5003293;28;20042;-66
2022/03/06 05:40:30;;;;;;;24.83;13.90;;;;;;;-147.05;100.00;58721.66;4993744;28;20051;-67
2022/03/06 05:42:57;;;;;;;28.58;14.80;;;;;;;-147.05;100.00;58721.66;4991350;28;20042;-66
2022/03/06 05:45:24;;;;;;;27.77;15.07;;;;;;;-147.05;100.00;58721.66;4991906;28;20043;-65
2022/03/06 05:47:51;;;;;;;26.70;15.50;;;;;;;-147.05;100.00;58721.66;4994762;28;20562;-66
2022/03/06 05:50:18;;;;;;;28.58;14.77;;;;;;;-147.05;100.00;58721.66;4991599;28;20047;-64
2022/03/06 05:52:48;;;;;;;25.27;14.50;;;;;;;-147.05;100.00;58721.66;4996061;28;20048;-65
2022/03/06 05:55:16;;;;;;;27.15;14.88;;;;;;;-147.05;100.00;58721.66;4991785;28;20102;-65
2022/03/06 05:57:46;;;;;;;25.38;14.13;;;;;;;-147.05;100.00;58721.66;5010361;28;20042;-66
2022/03/06 06:00:17;;;;;;;25.27;14.48;;;;;;;-147.05;100.00;58721.66;4998186;28;20046;-65
2022/03/06 06:02:45;;;;;;;25.85;14.32;;;;;;;-147.05;100.00;58721.66;4992429;28;20059;-65
2022/03/06 06:05:12;;;;;;;26.17;15.32;;;;;;;-147.05;100.00;58721.66;4993385;28;20133;-65
2022/03/06 06:07:39;;;;;;;24.35;14.30;;;;;;;-147.05;100.00;58721.66;5000135;28;20050;-65
2022/03/06 06:10:08;;;;;;;27.92;14.05;;;;;;;-147.05;100.00;58721.66;4995283;28;20106;-65
2022/03/06 06:12:35;;;;;;;25.50;14.80;;;;;;;-147.05;100.00;58721.66;4997268;28;20039;-64
2022/03/06 06:15:03;;;;;;;24.38;14.38;;;;;;;-147.05;100.00;58721.66;4994131;28;20046;-65
2022/03/06 06:17:30;;;;;;;24.88;14.88;;;;;;;-147.05;100.00;58721.66;5003008;28;20042;-66
2022/03/06 06:19:57;;;;;;;25.55;14.32;;;;;;;-147.05;100.00;58721.66;4992094;28;20146;-66
2022/03/06 06:22:24;;;;;;;23.30;14.05;;;;;;;-147.05;100.00;58721.66;4998739;28;20039;-66
2022/03/06 06:24:51;;;;;;;24.70;14.02;;;;;;;-147.05;100.00;58721.66;4998941;28;20042;-67
2022/03/06 06:27:18;;;;;;;25.30;15.25;;;;;;;-147.05;100.00;58721.66;5015037;28;20051;-67
2022/03/06 06:29:46;;;;;;;25.38;14.48;;;;;;;-147.05;100.00;58721.66;4998725;28;20133;-65
2022/03/06 06:32:14;;;;;;;25.77;14.40;;;;;;;-147.05;100.00;58721.66;4991629;28;20463;-65
2022/03/06 06:34:42;;;;;;;27.33;15.27;;;;;;;-147.05;100.00;58721.66;4996053;28;20039;-64
2022/03/06 06:37:09;;;;;;;24.58;14.32;;;;;;;-147.05;100.00;58721.66;5009892;28;20046;-64
2022/03/06 06:39:36;;;;;;;25.40;13.68;;;;;;;-147.05;100.00;58721.66;4992746;28;20526;-64
2022/03/06 06:42:04;;;;;;;25.90;14.18;;;;;;;-147.05;100.00;58721.66;4997128;28;20067;-65
2022/03/06 06:44:33;;;;;;;25.30;14.23;;;;;;;-147.05;100.00;58721.66;4998803;28;20514;-64
2022/03/06 06:47:02;;;;;;;24.17;14.13;;;;;;;-1.76;100.00;58721.66;4994990;28;20051;-65
2022/03/06 06:49:29;;;;;;;22.83;13.93;;;;;;;-147.05;100.00;58721.66;4995754;28;20051;-65
2022/03/06 06:51:57;;;;;;;25.60;14.20;;;;;;;-147.05;100.00;58721.66;4993460;28;20057;-66
2022/03/06 06:54:24;;;;;;;24.30;14.20;;;;;;;-147.05;100.00;58721.66;4994119;28;20050;-68
2022/03/06 06:56:51;;;;;;;26.17;15.75;;;;;;;-147.05;100.00;58721.66;4995777;28;20043;-65
2022/03/06 06:59:18;;;;;;;24.88;13.88;;;;;;;-147.05;100.00;58721.66;4989056;28;20069;-63
2022/03/06 07:01:45;;;;;;;22.08;13.27;;;;;;;-147.05;100.00;58721.66;4992645;28;20114;-70
2022/03/06 07:04:39;;;;;;;23.55;14.48;;;;;;;-147.05;0.00;58818.84;5093389;28;20418;-71
2022/03/06 07:07:07;;;;;;;24.58;13.45;;;;;;;-147.05;0.00;58818.84;5085030;28;20041;-72
2022/03/06 07:10:44;;;;;;;22.95;13.45;;;;;;;-147.05;0.00;59437.66;5092699;27;1577002;-66
2022/03/06 07:15:04;;;;;;;21.70;12.77;;;;;;;-147.05;0.00;58546.16;5063012;27;20362;-63
2022/03/06 07:17:32;;;;;;;23.50;13.73;;;;;;;-147.05;0.00;58546.16;5020950;28;20683;-65
2022/03/06 07:20:00;;;;;;;22.73;14.15;;;;;;;-147.05;0.00;58546.16;5020241;28;20042;-65
2022/03/06 07:22:27;;;;;;;21.38;12.40;;;;;;;-147.05;0.00;58546.16;5018906;28;20047;-64
2022/03/06 07:24:54;;;;;;;23.02;13.88;;;;;;;-147.05;0.00;58546.16;5020985;28;20044;-64
2022/03/06 07:27:21;;;;;;;22.50;13.35;;;;;;;-147.05;0.00;58546.16;5018250;28;20605;-65
2022/03/06 07:29:49;;;;;;;22.30;13.15;;;;;;;-0.55;nan;102582.16;5021344;28;20042;-64
2022/03/06 07:32:16;;;;;;;21.83;12.95;;;;;;;-0.45;nan;102586.09;5021376;28;20073;-65
2022/03/06 07:34:43;;;;;;;21.55;13.45;;;;;;;-0.40;nan;102582.91;5045715;28;20080;-66
2022/03/06 07:37:10;;;;;;;20.73;12.98;;;;;;;-0.35;nan;102588.28;5038150;28;20502;-65
2022/03/06 07:39:37;;;;;;;22.52;13.63;;;;;;;-0.30;nan;102597.09;5038665;28;20049;-66
2022/03/06 07:42:05;;;;;;;19.40;11.93;;;;;;;-0.25;nan;102589.59;5030016;28;20050;-68
2022/03/06 07:44:34;;;;;;;22.00;12.80;;;;;;;-0.19;nan;102602.78;5038033;28;20113;-66
2022/03/06 07:47:02;;;;;;;19.85;12.70;;;;;;;-0.10;nan;102604.91;5023148;28;20520;-66
2022/03/06 07:49:29;;;;;;;20.60;11.95;;;;;;;-0.01;nan;102605.34;5026590;28;20588;-65
2022/03/06 07:51:58;;;;;;;20.75;12.98;;;;;;;0.04;nan;102615.88;5032157;28;20077;-67
2022/03/06 07:54:25;;;;;;;19.77;12.75;;;;;;;0.07;nan;102608.25;5032718;28;20125;-65
2022/03/06 07:56:52;;;;;;;19.48;11.55;;;;;;;0.12;nan;102619.69;5038219;28;20767;-65
2022/03/06 07:59:21;;;;;;;19.52;12.50;;;;;;;0.15;nan;102615.53;5010637;28;20067;-65
2022/03/06 08:01:48;;;;;;;20.17;12.68;;;;;;;0.19;nan;102615.69;5008132;28;20053;-65
2022/03/06 08:04:15;;;;;;;21.77;11.65;;;;;;;0.23;nan;102622.72;5014083;28;20042;-64
2022/03/06 08:06:42;;;;;;;19.38;12.10;;;;;;;0.28;nan;102621.25;5020782;28;20517;-64
2022/03/06 08:09:09;;;;;;;23.33;13.07;;;;;;;0.34;nan;102626.69;5035818;28;20529;-64
2022/03/06 08:11:36;;;;;;;22.08;11.90;;;;;;;0.40;nan;102633.81;5032784;28;20096;-63
2022/03/06 08:14:04;;;;;;;19.50;10.68;;;;;;;0.43;nan;102624.50;5030841;28;20143;-66
2022/03/06 08:16:31;;;;;;;21.88;12.55;;;;;;;0.45;nan;102630.63;5029859;28;20534;-65
2022/03/06 08:18:58;;;;;;;22.23;12.30;;;;;;;0.48;nan;102629.88;5030491;28;20985;-65
2022/03/06 08:21:25;;;;;;;20.38;12.18;;;;;;;0.51;nan;102639.47;5038744;28;20953;-66
2022/03/06 08:23:52;;;;;;;17.75;10.63;;;;;;;0.58;nan;102644.09;5039816;28;20042;-65
2022/03/06 08:26:19;;;;;;;22.42;12.38;;;;;;;0.61;nan;102634.78;5017970;28;20531;-66
2022/03/06 08:28:46;;;;;;;23.45;11.80;;;;;;;0.74;nan;102645.66;5026211;28;20133;-65
2022/03/06 08:31:14;;;;;;;20.42;12.13;;;;;;;0.85;nan;102649.56;5028193;28;20088;-65
2022/03/06 08:33:41;;;;;;;17.75;11.68;;;;;;;0.87;nan;102655.66;5029335;28;20053;-67
2022/03/06 08:36:08;;;;;;;19.60;12.50;;;;;;;0.95;nan;102652.56;5024465;28;20073;-65
2022/03/06 08:38:35;;;;;;;22.35;11.00;;;;;;;0.99;nan;102649.25;5023958;28;20138;-65
2022/03/06 08:41:03;;;;;;;22.00;12.32;;;;;;;1.02;nan;102654.56;5027119;28;20164;-66
2022/03/06 08:43:32;;;;;;;17.27;11.48;;;;;;;1.07;nan;102658.22;5025907;28;20056;-67
2022/03/06 08:45:59;;;;;;;21.63;12.30;;;;;;;1.13;nan;102662.75;5023750;28;20201;-66
2022/03/06 08:48:26;;;;;;;21.45;13.00;;;;;;;1.17;nan;102654.34;5026472;28;20081;-66
2022/03/06 08:50:54;;;;;;;21.70;12.48;;;;;;;1.32;nan;102649.81;5018546;28;20136;-68
2022/03/06 08:53:22;;;;;;;19.10;12.20;;;;;;;1.37;nan;102656.06;5034910;28;20536;-66
2022/03/06 08:55:49;;;;;;;19.85;12.02;;;;;;;1.42;nan;102656.25;5022891;28;20117;-67
2022/03/06 08:58:17;;;;;;;19.85;13.05;;;;;;;1.47;nan;102649.56;5027703;28;20142;-64
2022/03/06 09:00:44;;;;;;;18.70;13.00;;;;;;;1.57;nan;102650.81;5022883;28;20038;-63
2022/03/06 09:03:11;;;;;;;17.80;12.25;;;;;;;1.70;nan;102654.75;5024833;28;20495;-66
2022/03/06 09:05:40;;;;;;;19.00;12.02;;;;;;;1.76;nan;102649.84;5027073;28;20075;-64
2022/03/06 09:08:11;;;;;;;19.73;12.27;;;;;;;1.92;nan;102653.03;5024690;28;20050;-65
2022/03/06 09:10:40;;;;;;;21.73;12.75;;;;;;;2.03;nan;102656.91;5023569;28;20041;-64
2022/03/06 09:13:09;;;;;;;16.67;11.60;;;;;;;2.11;nan;102662.38;5019730;28;20947;-64
2022/03/06 09:15:37;;;;;;;20.65;11.45;;;;;;;2.13;nan;102659.03;5010336;28;20100;-65
2022/03/06 09:18:05;;;;;;;17.30;11.65;;;;;;;2.10;nan;102648.56;5033757;28;20131;-64
2022/03/06 09:20:32;;;;;;;18.17;11.63;;;;;;;2.20;nan;102657.56;5042037;28;20034;-64
2022/03/06 09:22:59;;;;;;;18.23;11.32;;;;;;;2.27;nan;102658.66;5039117;28;20490;-63
2022/03/06 09:25:28;;;;;;;18.70;10.77;;;;;;;2.41;nan;102657.47;5032028;28;20038;-65
2022/03/06 09:27:56;;;;;;;17.08;11.23;;;;;;;2.54;nan;102657.91;5035227;28;20068;-63
2022/03/06 09:30:23;;;;;;;15.32;10.77;;;;;;;2.63;nan;102668.59;5037429;28;20048;-64
2022/03/06 09:32:50;;;;;;;16.38;11.23;;;;;;;2.73;nan;102657.75;5037402;28;20033;-64
2022/03/06 09:35:17;;;;;;;19.60;12.05;;;;;;;2.78;nan;102658.81;5039939;28;20056;-65
2022/03/06 09:37:44;;;;;;;17.58;11.13;;;;;;;2.99;nan;102657.78;5031560;28;20168;-65
2022/03/06 09:40:12;;;;;;;19.08;10.90;;;;;;;3.10;nan;102663.31;5036915;28;20046;-64
2022/03/06 09:42:40;;;;;;;18.48;11.15;;;;;;;3.17;nan;102659.22;5033259;28;20042;-64
2022/03/06 09:45:11;;;;;;;14.80;10.13;;;;;;;3.24;nan;102661.19;5034326;28;20058;-64
2022/03/06 09:47:40;;;;;;;20.33;10.85;;;;;;;3.26;nan;102662.13;5035104;28;20037;-65
2022/03/06 09:50:11;;;;;;;16.50;10.80;;;;;;;3.31;nan;102646.72;5034861;28;20121;-65
2022/03/06 09:52:38;;;;;;;17.17;10.93;;;;;;;3.34;nan;102658.06;5035364;28;20054;-65
2022/03/06 09:55:07;;;;;;;15.10;8.93;;;;;;;3.50;nan;102650.81;5039305;28;20493;-64
2022/03/06 09:57:34;;;;;;;17.27;10.57;;;;;;;3.60;nan;102649.38;5045334;28;20524;-64
2022/03/06 10:00:06;;;;;;;14.75;10.13;;;;;;;3.76;nan;102653.31;5040341;28;20037;-65
2022/03/06 10:02:54;;;;;;;16.02;9.48;;;;;;;3.97;nan;102648.78;5039513;28;20046;-65
2022/03/06 10:05:37;;;;;;;13.98;10.20;;;;;;;4.15;nan;102647.56;5031592;28;20053;-66
2022/03/06 10:08:23;;;;;;;19.13;10.25;;;;;;;4.33;nan;102657.59;5040770;28;20041;-65
2022/03/06 10:10:58;;;;;;;13.25;9.52;;;;;;;4.47;nan;102651.09;5034282;28;20536;-65
2022/03/06 10:13:29;;;;;;;14.20;9.48;;;;;;;4.61;nan;102654.06;5034049;28;20846;-64
2022/03/06 10:16:10;;;;;;;16.20;9.68;;;;;;;4.72;nan;102648.28;5031576;28;21084;-65
2022/03/06 10:18:47;;;;;;;13.27;9.65;;;;;;;4.80;nan;102646.75;5030198;28;20053;-65
2022/03/06 10:21:24;;;;;;;12.98;8.98;;;;;;;4.92;nan;102648.78;5035205;28;20038;-64
2022/03/06 10:23:55;;;;;;;13.70;9.13;;;;;;;4.95;nan;102651.47;5032704;28;20525;-64
2022/03/06 10:26:28;;;;;;;11.93;8.93;;;;;;;5.07;nan;102651.78;5029133;28;20572;-63
2022/03/06 10:29:02;;;;;;;14.43;10.10;;;;;;;5.20;nan;102644.28;5030217;28;20095;-63
2022/03/06 10:31:33;;;;;;;12.63;9.07;;;;;;;5.39;nan;102650.81;5033990;28;20038;-64
2022/03/06 10:34:09;;;;;;;11.25;8.18;;;;;;;5.49;nan;102647.59;5035609;28;20917;-65
2022/03/06 10:36:47;;;;;;;14.23;8.73;;;;;;;5.50;nan;102648.44;5011949;28;20048;-64
2022/03/06 10:39:23;;;;;;;13.32;8.93;;;;;;;5.56;nan;102648.59;5033347;28;20051;-63
2022/03/06 10:41:54;;;;;;;11.52;8.23;;;;;;;5.63;nan;102652.22;5038210;28;20870;-64
2022/03/06 10:44:40;;;;;;;11.80;8.25;;;;;;;5.76;nan;102646.44;5035674;28;20091;-64
2022/03/06 10:47:08;;;;;;;13.93;8.45;;;;;;;5.78;nan;102654.31;5027442;28;20045;-66
2022/03/06 10:49:35;;;;;;;16.05;8.77;;;;;;;5.79;nan;102646.53;5038352;28;20091;-65
2022/03/06 10:52:18;;;;;;;12.25;8.32;;;;;;;5.87;nan;102646.69;5033782;28;20052;-65
2022/03/06 10:54:50;;;;;;;11.35;8.45;;;;;;;5.88;nan;102645.84;5035860;28;20045;-66
2022/03/06 10:57:18;;;;;;;12.23;8.35;;;;;;;5.87;nan;102636.28;5039930;28;20063;-64
2022/03/06 10:59:48;;;;;;;14.30;8.98;;;;;;;5.96;nan;102643.38;5038456;28;20066;-64
2022/03/06 11:02:16;;;;;;;9.82;6.68;;;;;;;6.08;nan;102637.63;5036640;28;20572;-65
2022/03/06 11:04:46;;;;;;;11.18;8.68;;;;;;;5.99;nan;102635.66;5032087;28;20440;-63
2022/03/06 11:07:14;;;;;;;14.13;8.38;;;;;;;6.08;nan;102633.28;5035349;28;20127;-65
2022/03/06 11:09:45;;;;;;;12.88;7.43;;;;;;;6.06;nan;102643.66;5032760;28;20430;-67
2022/03/06 11:12:13;;;;;;;11.52;8.45;;;;;;;6.02;nan;102641.84;5041766;28;20050;-67
2022/03/06 11:14:40;;;;;;;11.38;8.20;;;;;;;6.09;nan;102642.84;5040633;28;20054;-68
2022/03/06 11:17:08;;;;;;;11.88;7.97;;;;;;;6.15;nan;102635.19;5038662;28;20595;-69
2022/03/06 11:19:36;;;;;;;12.23;8.30;;;;;;;6.21;nan;102634.41;5034799;28;20046;-67